McCall, Louisiana
Current Conditions -  °F | °C
As of 11:55 PM on Wednesday 22 Oct 2014 (Local Time) from KL38 Reporting Station
Clear Clear  
Wind Chill: 60°   Ceiling: Unl
Heat Index: 60°   Visibility: 10mi
Dew Point: 54°   Wind: 3mph
Humidity: 79%   Direction: 20°NNE
Pressure: 30.08"   Gusts: NA
Location:  30.1206°N, 91.0306°W
Report Text: KL38 230455Z AUTO 02003KT 10SM CLR 16/12 A3008 RMK AO2 T01580121
Loading
Personal Weather Stations






























Interactive Weather Map
Tropical Storm Tracking
New forecast layout! Learn more

10-Day Weather Forecast

Advertisements
Track Severe Weather on mobile